sensor_id;sensor_type;location;lat;lon;timestamp;P1;durP1;ratioP1;P2;durP2;ratioP2
34541;SDS011;20784;51.332;12.410;2022-12-07T00:01:34;19.33;;;11.15;;
34541;SDS011;20784;51.332;12.410;2022-12-07T00:04:03;15.80;;;10.15;;
34541;SDS011;20784;51.332;12.410;2022-12-07T00:06:35;17.02;;;10.60;;
34541;SDS011;20784;51.332;12.410;2022-12-07T00:09:03;18.08;;;10.40;;
34541;SDS011;20784;51.332;12.410;2022-12-07T00:11:31;14.25;;;9.38;;
34541;SDS011;20784;51.332;12.410;2022-12-07T00:14:11;16.63;;;10.60;;
34541;SDS011;20784;51.332;12.410;2022-12-07T00:16:38;17.13;;;8.90;;
34541;SDS011;20784;51.332;12.410;2022-12-07T00:19:10;18.35;;;10.57;;
34541;SDS011;20784;51.332;12.410;2022-12-07T00:21:37;16.25;;;9.50;;
34541;SDS011;20784;51.332;12.410;2022-12-07T00:24:09;15.63;;;9.98;;
34541;SDS011;20784;51.332;12.410;2022-12-07T00:26:36;15.38;;;9.98;;
34541;SDS011;20784;51.332;12.410;2022-12-07T00:29:04;17.08;;;10.82;;
34541;SDS011;20784;51.332;12.410;2022-12-07T00:31:35;17.85;;;10.52;;
34541;SDS011;20784;51.332;12.410;2022-12-07T00:36:29;17.73;;;10.18;;
34541;SDS011;20784;51.332;12.410;2022-12-07T00:38:57;19.92;;;11.38;;
34541;SDS011;20784;51.332;12.410;2022-12-07T00:43:54;21.17;;;11.20;;
34541;SDS011;20784;51.332;12.410;2022-12-07T00:46:20;21.60;;;11.00;;
34541;SDS011;20784;51.332;12.410;2022-12-07T00:48:47;15.75;;;10.90;;
34541;SDS011;20784;51.332;12.410;2022-12-07T00:51:14;17.25;;;11.75;;
34541;SDS011;20784;51.332;12.410;2022-12-07T00:53:41;17.05;;;10.57;;
34541;SDS011;20784;51.332;12.410;2022-12-07T00:56:14;17.88;;;11.40;;
34541;SDS011;20784;51.332;12.410;2022-12-07T01:01:21;24.02;;;12.30;;
34541;SDS011;20784;51.332;12.410;2022-12-07T01:03:48;17.90;;;11.38;;
34541;SDS011;20784;51.332;12.410;2022-12-07T01:06:14;17.75;;;10.90;;
34541;SDS011;20784;51.332;12.410;2022-12-07T01:08:44;18.58;;;12.20;;
34541;SDS011;20784;51.332;12.410;2022-12-07T01:11:11;17.08;;;11.48;;
34541;SDS011;20784;51.332;12.410;2022-12-07T01:13:39;20.95;;;11.57;;
34541;SDS011;20784;51.332;12.410;2022-12-07T01:16:06;20.75;;;12.50;;
34541;SDS011;20784;51.332;12.410;2022-12-07T01:18:35;17.67;;;11.02;;
34541;SDS011;20784;51.332;12.410;2022-12-07T01:23:41;19.65;;;11.90;;
34541;SDS011;20784;51.332;12.410;2022-12-07T01:26:10;19.52;;;11.68;;
34541;SDS011;20784;51.332;12.410;2022-12-07T01:28:40;20.80;;;12.52;;
34541;SDS011;20784;51.332;12.410;2022-12-07T01:31:10;16.85;;;11.02;;
34541;SDS011;20784;51.332;12.410;2022-12-07T01:33:41;16.95;;;11.65;;
34541;SDS011;20784;51.332;12.410;2022-12-07T01:36:12;15.07;;;10.52;;
34541;SDS011;20784;51.332;12.410;2022-12-07T01:38:41;16.02;;;11.05;;
34541;SDS011;20784;51.332;12.410;2022-12-07T01:41:07;16.98;;;11.35;;
34541;SDS011;20784;51.332;12.410;2022-12-07T01:43:33;17.45;;;11.77;;
34541;SDS011;20784;51.332;12.410;2022-12-07T01:45:59;19.80;;;12.50;;
34541;SDS011;20784;51.332;12.410;2022-12-07T01:48:27;17.08;;;11.02;;
34541;SDS011;20784;51.332;12.410;2022-12-07T01:50:59;16.00;;;10.43;;
34541;SDS011;20784;51.332;12.410;2022-12-07T01:55:55;19.45;;;11.63;;
34541;SDS011;20784;51.332;12.410;2022-12-07T01:58:23;21.00;;;12.77;;
34541;SDS011;20784;51.332;12.410;2022-12-07T02:00:50;22.10;;;10.95;;
34541;SDS011;20784;51.332;12.410;2022-12-07T02:03:23;17.63;;;11.15;;
34541;SDS011;20784;51.332;12.410;2022-12-07T02:05:55;17.67;;;11.40;;
34541;SDS011;20784;51.332;12.410;2022-12-07T02:08:24;21.30;;;11.68;;
34541;SDS011;20784;51.332;12.410;2022-12-07T02:10:56;20.67;;;12.13;;
34541;SDS011;20784;51.332;12.410;2022-12-07T02:13:23;19.13;;;10.82;;
34541;SDS011;20784;51.332;12.410;2022-12-07T02:21:19;18.80;;;11.10;;
34541;SDS011;20784;51.332;12.410;2022-12-07T02:32:13;18.63;;;10.55;;
34541;SDS011;20784;51.332;12.410;2022-12-07T02:34:50;17.77;;;10.73;;
34541;SDS011;20784;51.332;12.410;2022-12-07T02:42:35;18.15;;;11.02;;
34541;SDS011;20784;51.332;12.410;2022-12-07T02:45:05;18.20;;;10.00;;
34541;SDS011;20784;51.332;12.410;2022-12-07T02:47:33;18.50;;;10.45;;
34541;SDS011;20784;51.332;12.410;2022-12-07T02:50:05;16.85;;;10.40;;
34541;SDS011;20784;51.332;12.410;2022-12-07T02:52:31;18.25;;;10.80;;
34541;SDS011;20784;51.332;12.410;2022-12-07T02:54:57;17.48;;;10.10;;
34541;SDS011;20784;51.332;12.410;2022-12-07T02:57:40;19.73;;;9.85;;
34541;SDS011;20784;51.332;12.410;2022-12-07T03:00:17;19.50;;;10.13;;
34541;SDS011;20784;51.332;12.410;2022-12-07T03:03:06;19.00;;;9.13;;
34541;SDS011;20784;51.332;12.410;2022-12-07T03:11:02;14.57;;;9.65;;
34541;SDS011;20784;51.332;12.410;2022-12-07T03:13:38;12.93;;;8.77;;
34541;SDS011;20784;51.332;12.410;2022-12-07T03:16:43;15.98;;;9.50;;
34541;SDS011;20784;51.332;12.410;2022-12-07T03:19:19;14.98;;;8.82;;
34541;SDS011;20784;51.332;12.410;2022-12-07T03:21:49;15.65;;;9.05;;
34541;SDS011;20784;51.332;12.410;2022-12-07T03:24:29;15.73;;;9.23;;
34541;SDS011;20784;51.332;12.410;2022-12-07T03:29:58;16.10;;;9.35;;
34541;SDS011;20784;51.332;12.410;2022-12-07T03:32:41;14.52;;;8.50;;
34541;SDS011;20784;51.332;12.410;2022-12-07T03:37:51;14.93;;;8.75;;
34541;SDS011;20784;51.332;12.410;2022-12-07T03:40:30;14.00;;;8.75;;
34541;SDS011;20784;51.332;12.410;2022-12-07T03:45:51;17.58;;;8.35;;
34541;SDS011;20784;51.332;12.410;2022-12-07T03:48:33;13.82;;;8.13;;
34541;SDS011;20784;51.332;12.410;2022-12-07T03:51:13;16.10;;;7.72;;
34541;SDS011;20784;51.332;12.410;2022-12-07T03:56:42;16.25;;;8.90;;
34541;SDS011;20784;51.332;12.410;2022-12-07T03:59:11;14.38;;;8.52;;
34541;SDS011;20784;51.332;12.410;2022-12-07T04:01:40;13.35;;;8.85;;
34541;SDS011;20784;51.332;12.410;2022-12-07T04:04:08;14.05;;;8.55;;
34541;SDS011;20784;51.332;12.410;2022-12-07T04:06:34;13.50;;;8.25;;
34541;SDS011;20784;51.332;12.410;2022-12-07T04:09:02;13.20;;;8.23;;
34541;SDS011;20784;51.332;12.410;2022-12-07T04:11:28;12.75;;;8.10;;
34541;SDS011;20784;51.332;12.410;2022-12-07T04:13:54;18.25;;;9.10;;
34541;SDS011;20784;51.332;12.410;2022-12-07T04:16:38;13.18;;;7.32;;
34541;SDS011;20784;51.332;12.410;2022-12-07T04:19:04;15.68;;;8.57;;
34541;SDS011;20784;51.332;12.410;2022-12-07T04:21:30;13.60;;;8.05;;
34541;SDS011;20784;51.332;12.410;2022-12-07T04:23:55;14.80;;;8.80;;
34541;SDS011;20784;51.332;12.410;2022-12-07T04:26:21;13.30;;;8.20;;
34541;SDS011;20784;51.332;12.410;2022-12-07T04:28:47;13.60;;;8.77;;
34541;SDS011;20784;51.332;12.410;2022-12-07T04:31:13;14.07;;;8.50;;
34541;SDS011;20784;51.332;12.410;2022-12-07T04:33:39;12.65;;;8.18;;
34541;SDS011;20784;51.332;12.410;2022-12-07T04:36:05;11.82;;;8.52;;
34541;SDS011;20784;51.332;12.410;2022-12-07T04:38:31;15.10;;;8.60;;
34541;SDS011;20784;51.332;12.410;2022-12-07T04:40:56;11.73;;;7.22;;
34541;SDS011;20784;51.332;12.410;2022-12-07T04:43:22;11.80;;;7.88;;
34541;SDS011;20784;51.332;12.410;2022-12-07T04:45:47;12.18;;;8.00;;
34541;SDS011;20784;51.332;12.410;2022-12-07T04:48:14;13.75;;;8.32;;
34541;SDS011;20784;51.332;12.410;2022-12-07T04:50:40;14.27;;;8.55;;
34541;SDS011;20784;51.332;12.410;2022-12-07T04:53:11;14.10;;;8.30;;
34541;SDS011;20784;51.332;12.410;2022-12-07T04:55:39;13.65;;;7.95;;
34541;SDS011;20784;51.332;12.410;2022-12-07T04:58:05;14.55;;;8.27;;
34541;SDS011;20784;51.332;12.410;2022-12-07T05:00:31;14.35;;;7.82;;
34541;SDS011;20784;51.332;12.410;2022-12-07T05:02:59;15.18;;;8.63;;
34541;SDS011;20784;51.332;12.410;2022-12-07T05:05:25;13.85;;;8.63;;
34541;SDS011;20784;51.332;12.410;2022-12-07T05:07:57;12.68;;;7.95;;
34541;SDS011;20784;51.332;12.410;2022-12-07T05:10:23;15.77;;;8.80;;
34541;SDS011;20784;51.332;12.410;2022-12-07T05:12:52;13.48;;;6.82;;
34541;SDS011;20784;51.332;12.410;2022-12-07T05:15:18;12.77;;;8.68;;
34541;SDS011;20784;51.332;12.410;2022-12-07T05:17:46;12.68;;;8.27;;
34541;SDS011;20784;51.332;12.410;2022-12-07T05:20:12;16.33;;;9.40;;
34541;SDS011;20784;51.332;12.410;2022-12-07T05:22:38;12.88;;;9.13;;
34541;SDS011;20784;51.332;12.410;2022-12-07T05:25:04;16.42;;;9.88;;
34541;SDS011;20784;51.332;12.410;2022-12-07T05:27:30;15.35;;;9.15;;
34541;SDS011;20784;51.332;12.410;2022-12-07T05:29:56;13.73;;;8.90;;
34541;SDS011;20784;51.332;12.410;2022-12-07T05:32:22;13.35;;;8.88;;
34541;SDS011;20784;51.332;12.410;2022-12-07T05:34:47;17.10;;;9.07;;
34541;SDS011;20784;51.332;12.410;2022-12-07T05:37:19;12.20;;;8.52;;
34541;SDS011;20784;51.332;12.410;2022-12-07T05:39:54;14.02;;;8.68;;
34541;SDS011;20784;51.332;12.410;2022-12-07T05:42:42;14.93;;;9.40;;
34541;SDS011;20784;51.332;12.410;2022-12-07T05:45:21;14.30;;;9.57;;
34541;SDS011;20784;51.332;12.410;2022-12-07T05:47:49;16.67;;;9.90;;
34541;SDS011;20784;51.332;12.410;2022-12-07T05:50:18;13.50;;;7.53;;
34541;SDS011;20784;51.332;12.410;2022-12-07T05:52:59;15.30;;;10.07;;
34541;SDS011;20784;51.332;12.410;2022-12-07T05:55:28;15.60;;;9.70;;
34541;SDS011;20784;51.332;12.410;2022-12-07T05:57:56;25.30;;;10.32;;
34541;SDS011;20784;51.332;12.410;2022-12-07T06:00:48;14.73;;;9.80;;
34541;SDS011;20784;51.332;12.410;2022-12-07T06:03:14;15.38;;;10.25;;
34541;SDS011;20784;51.332;12.410;2022-12-07T06:05:40;17.10;;;10.68;;
34541;SDS011;20784;51.332;12.410;2022-12-07T06:08:06;20.58;;;10.43;;
34541;SDS011;20784;51.332;12.410;2022-12-07T06:10:41;19.27;;;10.88;;
34541;SDS011;20784;51.332;12.410;2022-12-07T06:13:07;18.65;;;11.38;;
34541;SDS011;20784;51.332;12.410;2022-12-07T06:15:36;17.00;;;10.55;;
34541;SDS011;20784;51.332;12.410;2022-12-07T06:18:02;15.15;;;10.50;;
34541;SDS011;20784;51.332;12.410;2022-12-07T06:20:28;18.80;;;11.07;;
34541;SDS011;20784;51.332;12.410;2022-12-07T06:22:57;17.02;;;10.98;;
34541;SDS011;20784;51.332;12.410;2022-12-07T06:25:23;20.77;;;12.88;;
34541;SDS011;20784;51.332;12.410;2022-12-07T06:27:48;20.35;;;12.40;;
34541;SDS011;20784;51.332;12.410;2022-12-07T06:30:24;21.88;;;13.57;;
34541;SDS011;20784;51.332;12.410;2022-12-07T06:32:50;22.27;;;12.63;;
34541;SDS011;20784;51.332;12.410;2022-12-07T06:35:24;20.08;;;11.93;;
34541;SDS011;20784;51.332;12.410;2022-12-07T06:37:55;18.83;;;12.52;;
34541;SDS011;20784;51.332;12.410;2022-12-07T06:40:50;19.10;;;11.77;;
34541;SDS011;20784;51.332;12.410;2022-12-07T06:43:23;23.92;;;13.35;;
34541;SDS011;20784;51.332;12.410;2022-12-07T06:45:52;18.50;;;11.85;;
34541;SDS011;20784;51.332;12.410;2022-12-07T06:48:18;18.90;;;12.65;;
34541;SDS011;20784;51.332;12.410;2022-12-07T06:50:45;20.40;;;12.82;;
34541;SDS011;20784;51.332;12.410;2022-12-07T06:53:12;22.30;;;14.23;;
34541;SDS011;20784;51.332;12.410;2022-12-07T06:55:38;21.88;;;12.82;;
34541;SDS011;20784;51.332;12.410;2022-12-07T06:58:04;19.73;;;12.52;;
34541;SDS011;20784;51.332;12.410;2022-12-07T07:00:29;20.40;;;13.60;;
34541;SDS011;20784;51.332;12.410;2022-12-07T07:02:56;22.38;;;13.32;;
34541;SDS011;20784;51.332;12.410;2022-12-07T07:05:24;22.02;;;14.40;;
34541;SDS011;20784;51.332;12.410;2022-12-07T07:07:56;23.05;;;14.48;;
34541;SDS011;20784;51.332;12.410;2022-12-07T07:10:31;23.23;;;14.05;;
34541;SDS011;20784;51.332;12.410;2022-12-07T07:12:57;25.45;;;14.27;;
34541;SDS011;20784;51.332;12.410;2022-12-07T07:15:22;21.17;;;13.57;;
34541;SDS011;20784;51.332;12.410;2022-12-07T07:17:48;24.10;;;14.80;;
34541;SDS011;20784;51.332;12.410;2022-12-07T07:20:14;24.13;;;14.38;;
34541;SDS011;20784;51.332;12.410;2022-12-07T07:22:39;20.65;;;12.88;;
34541;SDS011;20784;51.332;12.410;2022-12-07T07:25:06;23.88;;;13.77;;
34541;SDS011;20784;51.332;12.410;2022-12-07T07:27:32;22.10;;;13.90;;
34541;SDS011;20784;51.332;12.410;2022-12-07T07:29:58;24.23;;;14.07;;
34541;SDS011;20784;51.332;12.410;2022-12-07T07:32:24;22.80;;;14.10;;
34541;SDS011;20784;51.332;12.410;2022-12-07T07:34:52;21.73;;;13.60;;
34541;SDS011;20784;51.332;12.410;2022-12-07T07:37:17;21.25;;;13.10;;
34541;SDS011;20784;51.332;12.410;2022-12-07T07:39:43;21.67;;;13.98;;
34541;SDS011;20784;51.332;12.410;2022-12-07T07:42:09;21.90;;;13.73;;
34541;SDS011;20784;51.332;12.410;2022-12-07T07:44:34;22.17;;;12.57;;
34541;SDS011;20784;51.332;12.410;2022-12-07T07:47:00;19.48;;;12.57;;
34541;SDS011;20784;51.332;12.410;2022-12-07T07:49:26;18.02;;;12.55;;
34541;SDS011;20784;51.332;12.410;2022-12-07T07:51:51;20.38;;;13.27;;
34541;SDS011;20784;51.332;12.410;2022-12-07T07:54:17;23.05;;;12.63;;
34541;SDS011;20784;51.332;12.410;2022-12-07T07:56:43;19.05;;;12.63;;
34541;SDS011;20784;51.332;12.410;2022-12-07T07:59:08;18.92;;;12.23;;
34541;SDS011;20784;51.332;12.410;2022-12-07T08:01:34;21.27;;;12.95;;
34541;SDS011;20784;51.332;12.410;2022-12-07T08:04:00;20.80;;;12.27;;
34541;SDS011;20784;51.332;12.410;2022-12-07T08:06:26;19.45;;;12.23;;
34541;SDS011;20784;51.332;12.410;2022-12-07T08:08:52;17.95;;;11.38;;
34541;SDS011;20784;51.332;12.410;2022-12-07T08:11:17;17.40;;;10.23;;
34541;SDS011;20784;51.332;12.410;2022-12-07T08:13:51;15.48;;;10.82;;
34541;SDS011;20784;51.332;12.410;2022-12-07T08:16:17;17.60;;;11.00;;
34541;SDS011;20784;51.332;12.410;2022-12-07T08:18:43;14.63;;;10.57;;
34541;SDS011;20784;51.332;12.410;2022-12-07T08:21:09;15.68;;;9.35;;
34541;SDS011;20784;51.332;12.410;2022-12-07T08:23:40;17.35;;;11.07;;
34541;SDS011;20784;51.332;12.410;2022-12-07T08:26:13;16.30;;;9.80;;
34541;SDS011;20784;51.332;12.410;2022-12-07T08:28:47;16.90;;;10.15;;
34541;SDS011;20784;51.332;12.410;2022-12-07T08:31:15;16.20;;;10.50;;
34541;SDS011;20784;51.332;12.410;2022-12-07T08:33:47;18.52;;;10.60;;
34541;SDS011;20784;51.332;12.410;2022-12-07T08:36:16;15.45;;;9.95;;
34541;SDS011;20784;51.332;12.410;2022-12-07T08:38:53;18.70;;;10.95;;
34541;SDS011;20784;51.332;12.410;2022-12-07T08:41:18;15.88;;;10.68;;
34541;SDS011;20784;51.332;12.410;2022-12-07T08:43:47;15.57;;;10.18;;
34541;SDS011;20784;51.332;12.410;2022-12-07T08:46:25;16.35;;;10.63;;
34541;SDS011;20784;51.332;12.410;2022-12-07T08:49:09;15.00;;;9.32;;
34541;SDS011;20784;51.332;12.410;2022-12-07T08:52:01;14.35;;;9.77;;
34541;SDS011;20784;51.332;12.410;2022-12-07T08:54:33;14.13;;;9.75;;
34541;SDS011;20784;51.332;12.410;2022-12-07T08:57:19;14.13;;;8.73;;
34541;SDS011;20784;51.332;12.410;2022-12-07T08:59:48;13.35;;;8.90;;
34541;SDS011;20784;51.332;12.410;2022-12-07T09:02:29;17.70;;;8.98;;
34541;SDS011;20784;51.332;12.410;2022-12-07T09:04:58;16.88;;;8.93;;
34541;SDS011;20784;51.332;12.410;2022-12-07T09:07:25;17.17;;;9.63;;
34541;SDS011;20784;51.332;12.410;2022-12-07T09:10:00;16.45;;;9.00;;
34541;SDS011;20784;51.332;12.410;2022-12-07T09:12:29;14.20;;;9.10;;
34541;SDS011;20784;51.332;12.410;2022-12-07T09:15:17;17.23;;;8.98;;
34541;SDS011;20784;51.332;12.410;2022-12-07T09:17:50;16.02;;;8.80;;
34541;SDS011;20784;51.332;12.410;2022-12-07T09:20:29;13.10;;;8.98;;
34541;SDS011;20784;51.332;12.410;2022-12-07T09:22:54;14.45;;;8.82;;
34541;SDS011;20784;51.332;12.410;2022-12-07T09:25:23;18.00;;;9.23;;
34541;SDS011;20784;51.332;12.410;2022-12-07T09:27:56;15.57;;;8.27;;
34541;SDS011;20784;51.332;12.410;2022-12-07T09:30:26;13.68;;;8.30;;
34541;SDS011;20784;51.332;12.410;2022-12-07T09:32:58;18.30;;;9.25;;
34541;SDS011;20784;51.332;12.410;2022-12-07T09:35:25;23.30;;;9.35;;
34541;SDS011;20784;51.332;12.410;2022-12-07T09:37:52;15.70;;;9.07;;
34541;SDS011;20784;51.332;12.410;2022-12-07T09:40:47;18.70;;;9.30;;
34541;SDS011;20784;51.332;12.410;2022-12-07T09:43:14;16.08;;;9.23;;
34541;SDS011;20784;51.332;12.410;2022-12-07T09:45:42;19.35;;;9.40;;
34541;SDS011;20784;51.332;12.410;2022-12-07T09:48:20;13.73;;;8.65;;
34541;SDS011;20784;51.332;12.410;2022-12-07T09:50:54;16.80;;;8.95;;
34541;SDS011;20784;51.332;12.410;2022-12-07T09:53:34;15.57;;;8.70;;
34541;SDS011;20784;51.332;12.410;2022-12-07T09:58:32;15.27;;;9.77;;
34541;SDS011;20784;51.332;12.410;2022-12-07T10:01:09;18.25;;;9.90;;
34541;SDS011;20784;51.332;12.410;2022-12-07T10:03:38;17.88;;;9.95;;
34541;SDS011;20784;51.332;12.410;2022-12-07T10:06:06;27.75;;;11.45;;
34541;SDS011;20784;51.332;12.410;2022-12-07T10:08:32;16.15;;;8.90;;
34541;SDS011;20784;51.332;12.410;2022-12-07T10:10:59;15.73;;;9.30;;
34541;SDS011;20784;51.332;12.410;2022-12-07T10:16:01;15.15;;;9.45;;
34541;SDS011;20784;51.332;12.410;2022-12-07T10:18:35;18.38;;;10.05;;
34541;SDS011;20784;51.332;12.410;2022-12-07T10:23:42;19.42;;;9.88;;
34541;SDS011;20784;51.332;12.410;2022-12-07T10:28:52;16.23;;;9.85;;
34541;SDS011;20784;51.332;12.410;2022-12-07T10:31:20;16.10;;;9.75;;
34541;SDS011;20784;51.332;12.410;2022-12-07T10:41:26;20.88;;;8.85;;
34541;SDS011;20784;51.332;12.410;2022-12-07T10:43:54;13.95;;;8.35;;
34541;SDS011;20784;51.332;12.410;2022-12-07T10:49:30;12.50;;;7.10;;
34541;SDS011;20784;51.332;12.410;2022-12-07T10:55:11;10.13;;;6.38;;
34541;SDS011;20784;51.332;12.410;2022-12-07T10:58:11;14.85;;;6.93;;
34541;SDS011;20784;51.332;12.410;2022-12-07T11:03:46;15.27;;;7.38;;
34541;SDS011;20784;51.332;12.410;2022-12-07T11:07:02;12.57;;;6.63;;
34541;SDS011;20784;51.332;12.410;2022-12-07T11:18:21;8.77;;;5.05;;
34541;SDS011;20784;51.332;12.410;2022-12-07T11:29:11;13.77;;;6.13;;
34541;SDS011;20784;51.332;12.410;2022-12-07T11:32:19;11.45;;;6.32;;
34541;SDS011;20784;51.332;12.410;2022-12-07T11:38:26;12.20;;;6.47;;
34541;SDS011;20784;51.332;12.410;2022-12-07T11:41:02;14.15;;;6.68;;
34541;SDS011;20784;51.332;12.410;2022-12-07T11:46:52;17.85;;;8.40;;
34541;SDS011;20784;51.332;12.410;2022-12-07T11:49:44;15.57;;;7.90;;
34541;SDS011;20784;51.332;12.410;2022-12-07T11:52:30;15.77;;;8.07;;
34541;SDS011;20784;51.332;12.410;2022-12-07T11:55:23;13.27;;;6.68;;
34541;SDS011;20784;51.332;12.410;2022-12-07T11:58:28;13.43;;;6.95;;
34541;SDS011;20784;51.332;12.410;2022-12-07T12:04:07;11.90;;;6.68;;
34541;SDS011;20784;51.332;12.410;2022-12-07T12:06:52;11.98;;;6.20;;
34541;SDS011;20784;51.332;12.410;2022-12-07T12:09:31;12.57;;;6.55;;
34541;SDS011;20784;51.332;12.410;2022-12-07T12:15:30;12.95;;;5.60;;
34541;SDS011;20784;51.332;12.410;2022-12-07T12:18:22;12.13;;;5.50;;
34541;SDS011;20784;51.332;12.410;2022-12-07T12:21:02;12.90;;;6.30;;
34541;SDS011;20784;51.332;12.410;2022-12-07T12:23:37;12.48;;;5.65;;
34541;SDS011;20784;51.332;12.410;2022-12-07T12:31:46;9.05;;;4.10;;
34541;SDS011;20784;51.332;12.410;2022-12-07T12:42:52;8.25;;;3.60;;
34541;SDS011;20784;51.332;12.410;2022-12-07T12:45:24;11.25;;;3.60;;
34541;SDS011;20784;51.332;12.410;2022-12-07T12:50:29;6.50;;;3.30;;
34541;SDS011;20784;51.332;12.410;2022-12-07T12:58:22;5.93;;;3.00;;
34541;SDS011;20784;51.332;12.410;2022-12-07T13:04:02;7.55;;;2.40;;
34541;SDS011;20784;51.332;12.410;2022-12-07T13:06:49;7.53;;;2.80;;
34541;SDS011;20784;51.332;12.410;2022-12-07T13:09:17;11.10;;;2.75;;
34541;SDS011;20784;51.332;12.410;2022-12-07T13:11:57;6.03;;;2.75;;
34541;SDS011;20784;51.332;12.410;2022-12-07T13:20:04;5.43;;;2.15;;
34541;SDS011;20784;51.332;12.410;2022-12-07T13:27:43;8.73;;;3.30;;
34541;SDS011;20784;51.332;12.410;2022-12-07T13:30:38;4.10;;;1.95;;
34541;SDS011;20784;51.332;12.410;2022-12-07T13:33:32;4.90;;;2.05;;
34541;SDS011;20784;51.332;12.410;2022-12-07T13:36:03;4.70;;;2.00;;
34541;SDS011;20784;51.332;12.410;2022-12-07T13:38:30;6.05;;;1.90;;
34541;SDS011;20784;51.332;12.410;2022-12-07T13:41:02;5.15;;;1.90;;
34541;SDS011;20784;51.332;12.410;2022-12-07T13:43:48;6.85;;;2.17;;
34541;SDS011;20784;51.332;12.410;2022-12-07T13:46:19;7.43;;;2.08;;
34541;SDS011;20784;51.332;12.410;2022-12-07T13:48:51;4.50;;;1.80;;
34541;SDS011;20784;51.332;12.410;2022-12-07T13:51:21;8.18;;;2.10;;
34541;SDS011;20784;51.332;12.410;2022-12-07T13:53:50;4.88;;;1.50;;
34541;SDS011;20784;51.332;12.410;2022-12-07T13:56:26;3.70;;;1.85;;
34541;SDS011;20784;51.332;12.410;2022-12-07T13:58:57;4.22;;;2.10;;
34541;SDS011;20784;51.332;12.410;2022-12-07T14:01:31;6.72;;;2.28;;
34541;SDS011;20784;51.332;12.410;2022-12-07T14:04:16;4.10;;;1.90;;
34541;SDS011;20784;51.332;12.410;2022-12-07T14:06:49;4.75;;;2.42;;
34541;SDS011;20784;51.332;12.410;2022-12-07T14:09:18;8.27;;;2.00;;
34541;SDS011;20784;51.332;12.410;2022-12-07T14:11:49;4.90;;;1.88;;
34541;SDS011;20784;51.332;12.410;2022-12-07T14:14:17;4.82;;;1.75;;
34541;SDS011;20784;51.332;12.410;2022-12-07T14:16:56;4.05;;;1.70;;
34541;SDS011;20784;51.332;12.410;2022-12-07T14:19:42;4.32;;;1.73;;
34541;SDS011;20784;51.332;12.410;2022-12-07T14:22:27;3.22;;;1.90;;
34541;SDS011;20784;51.332;12.410;2022-12-07T14:28:09;11.32;;;2.03;;
34541;SDS011;20784;51.332;12.410;2022-12-07T14:30:49;4.43;;;2.00;;
34541;SDS011;20784;51.332;12.410;2022-12-07T14:33:14;6.05;;;1.95;;
34541;SDS011;20784;51.332;12.410;2022-12-07T14:35:40;4.85;;;2.10;;
34541;SDS011;20784;51.332;12.410;2022-12-07T14:38:08;4.10;;;1.55;;
34541;SDS011;20784;51.332;12.410;2022-12-07T14:40:36;5.05;;;1.88;;
34541;SDS011;20784;51.332;12.410;2022-12-07T14:43:11;3.35;;;1.80;;
34541;SDS011;20784;51.332;12.410;2022-12-07T14:45:39;8.02;;;2.38;;
34541;SDS011;20784;51.332;12.410;2022-12-07T14:48:11;9.85;;;2.38;;
34541;SDS011;20784;51.332;12.410;2022-12-07T14:50:39;5.38;;;2.00;;
34541;SDS011;20784;51.332;12.410;2022-12-07T14:55:40;7.85;;;2.05;;
34541;SDS011;20784;51.332;12.410;2022-12-07T14:58:05;4.05;;;1.75;;
34541;SDS011;20784;51.332;12.410;2022-12-07T15:00:37;7.63;;;2.47;;
34541;SDS011;20784;51.332;12.410;2022-12-07T15:03:02;7.10;;;2.15;;
34541;SDS011;20784;51.332;12.410;2022-12-07T15:05:28;5.25;;;1.88;;
34541;SDS011;20784;51.332;12.410;2022-12-07T15:07:54;3.85;;;1.67;;
34541;SDS011;20784;51.332;12.410;2022-12-07T15:10:27;13.80;;;2.08;;
34541;SDS011;20784;51.332;12.410;2022-12-07T15:12:57;6.75;;;1.83;;
34541;SDS011;20784;51.332;12.410;2022-12-07T15:15:49;6.10;;;1.95;;
34541;SDS011;20784;51.332;12.410;2022-12-07T15:18:20;5.22;;;1.98;;
34541;SDS011;20784;51.332;12.410;2022-12-07T15:20:50;9.52;;;2.05;;
34541;SDS011;20784;51.332;12.410;2022-12-07T15:23:16;5.05;;;1.77;;
34541;SDS011;20784;51.332;12.410;2022-12-07T15:25:42;5.78;;;2.13;;
34541;SDS011;20784;51.332;12.410;2022-12-07T15:28:09;6.35;;;2.15;;
34541;SDS011;20784;51.332;12.410;2022-12-07T15:30:39;11.40;;;2.25;;
34541;SDS011;20784;51.332;12.410;2022-12-07T15:33:07;6.57;;;1.75;;
34541;SDS011;20784;51.332;12.410;2022-12-07T15:35:33;6.85;;;1.75;;
34541;SDS011;20784;51.332;12.410;2022-12-07T15:38:06;7.07;;;1.80;;
34541;SDS011;20784;51.332;12.410;2022-12-07T15:40:33;3.17;;;1.95;;
34541;SDS011;20784;51.332;12.410;2022-12-07T15:43:00;5.90;;;2.08;;
34541;SDS011;20784;51.332;12.410;2022-12-07T15:45:26;5.03;;;2.20;;
34541;SDS011;20784;51.332;12.410;2022-12-07T15:47:52;12.02;;;2.72;;
34541;SDS011;20784;51.332;12.410;2022-12-07T15:50:40;8.20;;;1.90;;
34541;SDS011;20784;51.332;12.410;2022-12-07T15:53:06;6.00;;;2.05;;
34541;SDS011;20784;51.332;12.410;2022-12-07T15:55:43;3.92;;;1.58;;
34541;SDS011;20784;51.332;12.410;2022-12-07T15:58:08;5.03;;;1.55;;
34541;SDS011;20784;51.332;12.410;2022-12-07T16:00:47;4.63;;;1.70;;
34541;SDS011;20784;51.332;12.410;2022-12-07T16:03:19;5.60;;;2.78;;
34541;SDS011;20784;51.332;12.410;2022-12-07T16:06:06;5.20;;;1.63;;
34541;SDS011;20784;51.332;12.410;2022-12-07T16:08:43;4.57;;;1.95;;
34541;SDS011;20784;51.332;12.410;2022-12-07T16:11:12;6.22;;;1.90;;
34541;SDS011;20784;51.332;12.410;2022-12-07T16:13:43;6.72;;;2.35;;
34541;SDS011;20784;51.332;12.410;2022-12-07T16:16:12;7.10;;;3.75;;
34541;SDS011;20784;51.332;12.410;2022-12-07T16:18:41;8.57;;;2.42;;
34541;SDS011;20784;51.332;12.410;2022-12-07T16:21:08;8.10;;;2.58;;
34541;SDS011;20784;51.332;12.410;2022-12-07T16:23:34;5.15;;;2.28;;
34541;SDS011;20784;51.332;12.410;2022-12-07T16:26:07;10.90;;;3.40;;
34541;SDS011;20784;51.332;12.410;2022-12-07T16:28:38;4.95;;;2.65;;
34541;SDS011;20784;51.332;12.410;2022-12-07T16:31:09;8.50;;;2.78;;
34541;SDS011;20784;51.332;12.410;2022-12-07T16:33:38;6.57;;;2.55;;
34541;SDS011;20784;51.332;12.410;2022-12-07T16:36:07;13.43;;;3.03;;
34541;SDS011;20784;51.332;12.410;2022-12-07T16:38:34;12.75;;;3.13;;
34541;SDS011;20784;51.332;12.410;2022-12-07T16:41:04;5.40;;;2.38;;
34541;SDS011;20784;51.332;12.410;2022-12-07T16:43:31;6.63;;;2.75;;
34541;SDS011;20784;51.332;12.410;2022-12-07T16:45:57;14.25;;;3.35;;
34541;SDS011;20784;51.332;12.410;2022-12-07T16:48:23;9.63;;;3.00;;
34541;SDS011;20784;51.332;12.410;2022-12-07T16:50:51;11.35;;;2.85;;
34541;SDS011;20784;51.332;12.410;2022-12-07T16:53:20;6.25;;;2.92;;
34541;SDS011;20784;51.332;12.410;2022-12-07T16:55:47;6.57;;;2.88;;
34541;SDS011;20784;51.332;12.410;2022-12-07T16:58:13;8.82;;;3.13;;
34541;SDS011;20784;51.332;12.410;2022-12-07T17:00:43;5.03;;;2.67;;
34541;SDS011;20784;51.332;12.410;2022-12-07T17:03:09;7.43;;;2.90;;
34541;SDS011;20784;51.332;12.410;2022-12-07T17:05:39;7.30;;;3.20;;
34541;SDS011;20784;51.332;12.410;2022-12-07T17:08:08;8.57;;;3.22;;
34541;SDS011;20784;51.332;12.410;2022-12-07T17:10:35;5.78;;;3.15;;
34541;SDS011;20784;51.332;12.410;2022-12-07T17:13:06;6.88;;;3.00;;